.
WxDataArchive / Data Records for 2011-03-04
2011-03-03 March 2011 2011-03-05

Data Records for Friday, 04 March 2011

Time	Temp	Chill	HIndex	Humid	Dewpt	 Wind 	HiWind	WindDir	Rain 	Barom 
-----	----	-----	------	-----	-----	------	------	-------	-----	----- 
00:00	31.8	31.8	31.8	72	23.8	2	5	90	0.00	30.227 
00:05	31.8	31.8	31.8	72	23.8	2	7	90	0.00	30.227 
00:10	31.8	31.8	31.8	71	23.5	1	6	90	0.00	30.227 
00:15	31.9	31.9	31.9	71	23.6	1	2	90	0.00	30.227 
00:20	31.9	31.9	31.9	71	23.6	1	3	90	0.00	30.227 
00:25	31.9	31.9	31.9	71	23.6	1	5	90	0.00	30.227 
00:30	31.9	31.9	31.9	71	23.6	1	4	90	0.00	30.220 
00:35	31.9	31.9	31.9	71	23.6	2	4	90	0.00	30.220 
00:40	31.9	31.9	31.9	72	23.9	1	3	90	0.00	30.220 
00:45	31.8	31.8	31.8	72	23.8	1	4	90	0.00	30.217 
00:50	31.8	31.8	31.8	73	24.1	1	2	90	0.00	30.217 
00:55	31.8	31.8	31.8	73	24.1	1	3	90	0.00	30.217 
01:00	31.8	31.8	31.8	73	24.1	1	4	90	0.00	30.212 
01:05	31.8	31.8	31.8	74	24.5	1	3	90	0.00	30.212 
01:10	31.8	31.8	31.8	73	24.1	1	3	90	0.00	30.212 
01:15	31.8	31.8	31.8	73	24.1	1	4	90	0.00	30.211 
01:20	31.8	31.8	31.8	73	24.1	1	3	90	0.00	30.211 
01:25	31.8	31.8	31.8	73	24.1	1	3	90	0.00	30.211 
01:30	31.8	31.8	31.8	73	24.1	1	4	90	0.00	30.209 
01:35	31.9	31.9	31.9	73	24.2	1	4	90	0.00	30.209 
01:40	31.9	31.9	31.9	72	23.9	2	4	90	0.00	30.209 
01:45	32.1	32.1	32.1	72	24.1	0	2	90	0.00	30.207 
01:50	32.1	32.1	32.1	72	24.1	1	3	90	0.00	30.207 
01:55	32.1	32.1	32.1	72	24.1	1	2	90	0.00	30.207 
02:00	32.1	32.1	32.1	72	24.1	1	4	90	0.00	30.202 
02:05	32.1	32.1	32.1	72	24.1	2	4	90	0.00	30.202 
02:10	32.1	32.1	32.1	72	24.1	2	4	90	0.00	30.202 
02:15	32.1	32.1	32.1	72	24.1	1	4	90	0.00	30.192 
02:20	32.1	32.1	32.1	72	24.1	2	5	90	0.00	30.192 
02:25	32.1	32.1	32.1	72	24.1	2	4	90	0.00	30.192 
02:30	32.1	32.1	32.1	72	24.1	2	4	112	0.00	30.187 
02:35	32.1	32.1	32.1	73	24.4	2	4	90	0.00	30.187 
02:40	32.1	32.1	32.1	73	24.4	2	5	90	0.00	30.187 
02:45	32.1	32.1	32.1	73	24.4	1	4	112	0.00	30.179 
02:50	32.1	32.1	32.1	73	24.4	2	4	90	0.00	30.179 
02:55	32.1	32.1	32.1	74	24.8	0	2	90	0.00	30.179 
03:00	31.9	31.9	31.9	74	24.6	1	3	90	0.00	30.176 
03:05	31.9	31.9	31.9	74	24.6	1	3	90	0.00	30.176 
03:10	31.8	31.8	31.8	75	24.8	1	3	90	0.00	30.176 
03:15	31.5	31.5	31.5	76	24.8	0	2	90	0.00	30.165 
03:20	31.3	31.3	31.3	77	24.9	1	4	90	0.00	30.165 
03:25	31.3	31.3	31.3	77	24.9	1	4	90	0.00	30.165 
03:30	31.5	31.5	31.5	77	25.1	2	4	90	0.00	30.161 
03:35	31.5	31.5	31.5	76	24.8	2	4	90	0.00	30.161 
03:40	31.6	31.6	31.6	76	24.9	2	5	90	0.00	30.161 
03:45	31.6	31.6	31.6	76	24.9	2	4	90	0.00	30.156 
03:50	31.8	31.8	31.8	76	25.1	2	4	90	0.00	30.156 
03:55	31.8	31.8	31.8	76	25.1	1	4	68	0.00	30.156 
04:00	31.9	31.9	31.9	76	25.2	2	5	68	0.00	30.146 
04:05	31.9	31.9	31.9	75	24.9	2	4	68	0.00	30.146 
04:10	32.1	32.1	32.1	75	25.1	1	4	90	0.00	30.146 
04:15	32.2	32.2	32.2	75	25.2	2	3	90	0.00	30.143 
04:20	32.4	32.4	32.4	75	25.4	2	4	90	0.00	30.143 
04:25	32.4	32.4	32.4	74	25.1	1	4	90	0.00	30.143 
04:30	32.4	32.4	32.4	74	25.1	1	2	90	0.00	30.134 
04:35	32.4	32.4	32.4	74	25.1	1	3	90	0.00	30.134 
04:40	32.5	32.5	32.5	73	24.8	0	2	90	0.00	30.134 
04:45	32.5	32.5	32.5	73	24.8	0	2	90	0.00	30.131 
04:50	32.5	32.5	32.5	73	24.8	1	2	90	0.00	30.131 
04:55	32.5	32.5	32.5	73	24.8	1	2	90	0.00	30.131 
05:00	32.4	32.4	32.4	73	24.7	1	3	90	0.00	30.131 
05:05	32.2	32.2	32.2	74	24.9	1	3	90	0.00	30.131 
05:10	32.2	32.2	32.2	74	24.9	1	4	90	0.00	30.131 
05:15	32.4	32.4	32.4	74	25.1	2	4	90	0.00	30.127 
05:20	32.4	32.4	32.4	74	25.1	1	3	90	0.00	30.127 
05:25	32.4	32.4	32.4	74	25.1	1	2	90	0.00	30.127 
05:30	32.4	32.4	32.4	74	25.1	1	3	90	0.00	30.127 
05:35	32.5	32.5	32.5	74	25.2	0	2	90	0.00	30.127 
05:40	32.5	32.5	32.5	74	25.2	1	2	90	0.00	30.127 
05:45	32.7	32.7	32.7	73	25.0	1	2	90	0.00	30.122 
05:50	32.7	32.7	32.7	73	25.0	0	2	90	0.00	30.122 
05:55	32.8	32.8	32.8	73	25.1	0	2	90	0.00	30.122 
06:00	32.8	32.8	32.8	73	25.1	1	2	90	0.00	30.123 
06:05	32.8	32.8	32.8	73	25.1	0	2	90	0.00	30.123 
06:10	32.7	32.7	32.7	73	25.0	1	2	90	0.00	30.123 
06:15	32.7	32.7	32.7	74	25.3	0	2	90	0.00	30.118 
06:20	32.7	32.7	32.7	74	25.3	0	2	90	0.00	30.118 
06:25	32.7	32.7	32.7	74	25.3	1	2	90	0.00	30.118 
06:30	32.7	32.7	32.7	74	25.3	0	2	90	0.00	30.122 
06:35	32.7	32.7	32.7	74	25.3	0	1	90	0.00	30.122 
06:40	32.7	32.7	32.7	74	25.3	0	2	90	0.00	30.122 
06:45	32.8	32.8	32.8	74	25.4	0	2	90	0.00	30.117 
06:50	32.9	32.9	32.9	75	25.9	1	2	90	0.00	30.117 
06:55	33.1	33.1	33.1	76	26.4	1	2	90	0.00	30.117 
07:00	33.1	33.1	33.1	76	26.4	0	1	90	0.00	30.119 
07:05	33.1	33.1	33.1	76	26.4	0	1	90	0.00	30.119 
07:10	33.2	33.2	33.2	77	26.8	0	0	---	0.00	30.119 
07:15	33.2	33.2	33.2	77	26.8	0	1	90	0.00	30.125 
07:20	33.2	33.2	33.2	78	27.1	0	1	90	0.00	30.125 
07:25	33.2	33.2	33.2	78	27.1	0	2	90	0.00	30.125 
07:30	33.2	33.2	33.2	78	27.1	0	1	90	0.00	30.127 
07:35	33.2	33.2	33.2	78	27.1	0	1	90	0.00	30.127 
07:40	33.2	33.2	33.2	79	27.4	0	0	---	0.00	30.127 
07:45	33.4	33.4	33.4	79	27.6	0	1	90	0.00	30.131 
07:50	33.5	33.5	33.5	80	28.0	0	1	90	0.00	30.131 
07:55	33.7	33.7	33.7	81	28.5	0	1	90	0.00	30.131 
08:00	33.8	33.8	33.8	81	28.6	0	1	90	0.00	30.132 
08:05	34.0	34.0	34.0	81	28.8	0	1	90	0.00	30.132 
08:10	34.1	34.1	34.1	82	29.2	0	2	90	0.00	30.132 
08:15	34.3	34.3	34.3	82	29.4	0	1	90	0.00	30.133 
08:20	34.4	34.4	34.4	83	29.8	0	1	90	0.00	30.133 
08:25	34.6	34.6	34.6	83	30.0	0	1	90	0.00	30.133 
08:30	34.7	34.7	34.7	83	30.1	0	1	90	0.00	30.137 
08:35	35.0	35.0	35.0	83	30.4	0	1	90	0.00	30.137 
08:40	35.3	35.3	35.3	83	30.7	0	0	---	0.00	30.137 
08:45	35.6	35.6	35.6	83	31.0	0	0	---	0.00	30.142 
08:50	35.8	35.8	35.8	83	31.2	0	0	---	0.00	30.142 
08:55	36.0	36.0	36.0	83	31.3	0	0	---	0.00	30.142 
09:00	36.3	36.3	36.3	83	31.6	0	1	90	0.00	30.144 
09:05	36.8	36.8	36.8	82	31.8	0	0	---	0.00	30.144 
09:10	37.2	37.2	37.2	82	32.2	0	1	90	0.00	30.144 
09:15	37.5	37.5	37.5	81	32.2	0	1	90	0.00	30.144 
09:20	37.9	37.9	37.9	82	32.9	0	1	90	0.00	30.144 
09:25	38.9	38.9	38.9	83	34.2	0	1	90	0.00	30.144 
09:30	40.1	40.1	40.1	84	35.7	0	3	248	0.00	30.143 
09:35	41.5	41.5	41.5	86	37.6	1	4	248	0.00	30.143 
09:40	42.6	42.6	42.6	87	39.0	1	4	248	0.02	30.143 
09:45	43.3	43.3	43.3	88	40.0	1	3	248	0.02	30.138 
09:50	43.6	43.6	43.6	89	40.6	1	4	248	0.00	30.138 
09:55	43.9	43.9	43.9	90	41.2	1	4	248	0.01	30.138 
10:00	44.1	44.1	44.1	90	41.4	1	2	248	0.01	30.135 
10:05	44.1	44.1	44.1	90	41.4	0	3	248	0.01	30.135 
10:10	44.1	44.1	44.1	91	41.6	0	1	248	0.00	30.135 
10:15	44.1	44.1	44.1	91	41.6	0	2	248	0.01	30.133 
10:20	44.3	44.3	44.3	92	42.1	0	1	248	0.00	30.133 
10:25	44.5	44.5	44.5	92	42.3	1	5	248	0.00	30.133 
10:30	44.8	44.8	44.8	92	42.6	0	2	112	0.01	30.130 
10:35	44.9	44.9	44.9	92	42.7	0	1	112	0.00	30.130 
10:40	45.1	45.1	45.1	93	43.2	0	1	112	0.00	30.130 
10:45	45.2	45.2	45.2	93	43.3	1	2	112	0.00	30.127 
10:50	45.4	45.4	45.4	93	43.5	1	3	112	0.01	30.127 
10:55	45.5	45.5	45.5	93	43.6	1	5	112	0.00	30.127 
11:00	45.8	45.8	45.8	93	43.9	1	7	90	0.00	30.121 
11:05	46.1	46.1	46.1	93	44.2	1	5	112	0.00	30.121 
11:10	46.4	46.4	46.4	93	44.5	1	4	112	0.00	30.121 
11:15	46.5	46.5	46.5	92	44.3	1	7	90	0.00	30.121 
11:20	46.8	46.8	46.8	92	44.6	1	4	112	0.00	30.121 
11:25	46.8	46.8	46.8	92	44.6	0	3	68	0.00	30.121 
11:30	47.0	47.0	47.0	92	44.8	1	6	270	0.00	30.126 
11:35	47.0	47.0	47.0	92	44.8	2	6	90	0.00	30.126 
11:40	47.0	47.0	47.0	92	44.8	1	4	270	0.00	30.126 
11:45	46.8	46.8	46.8	92	44.6	2	6	90	0.01	30.124 
11:50	46.8	46.8	46.8	92	44.6	1	6	248	0.01	30.124 
11:55	46.7	46.7	46.7	92	44.5	1	4	68	0.01	30.124 
12:00	46.5	46.5	46.5	92	44.3	2	7	112	0.01	30.122 
12:05	46.5	46.5	46.5	92	44.3	2	4	90	0.01	30.122 
12:10	46.4	46.4	46.4	91	43.9	2	6	112	0.00	30.122 
12:15	46.4	46.4	46.4	91	43.9	2	11	45	0.00	30.121 
12:20	46.2	46.2	46.2	91	43.7	2	6	90	0.01	30.121 
12:25	46.2	46.2	46.2	91	43.7	2	6	112	0.01	30.121 
12:30	46.2	46.2	46.2	92	44.0	2	5	90	0.00	30.119 
12:35	46.2	46.2	46.2	92	44.0	1	6	90	0.01	30.119 
12:40	46.2	46.2	46.2	96	45.1	2	5	90	0.00	30.119 
12:45	46.1	46.1	46.1	92	43.9	1	5	135	0.02	30.113 
12:50	46.2	46.2	46.2	93	44.3	1	4	90	0.00	30.113 
12:55	46.4	46.4	46.4	93	44.5	2	6	90	0.00	30.113 
13:00	46.4	46.4	46.4	93	44.5	1	5	90	0.00	30.102 
13:05	46.4	46.4	46.4	93	44.5	1	4	90	0.00	30.102 
13:10	46.5	46.5	46.5	93	44.6	1	4	90	0.00	30.102 
13:15	46.5	46.5	46.5	93	44.6	1	3	90	0.00	30.094 
13:20	46.8	46.8	46.8	93	44.9	2	5	90	0.00	30.094 
13:25	47.0	47.0	47.0	93	45.1	1	4	90	0.00	30.094 
13:30	47.3	47.3	47.3	93	45.4	2	7	90	0.00	30.090 
13:35	47.3	47.3	47.3	93	45.4	1	6	112	0.00	30.090 
13:40	47.3	47.3	47.3	93	45.4	1	5	45	0.00	30.090 
13:45	47.4	47.4	47.4	92	45.2	1	5	90	0.00	30.086 
13:50	47.6	47.6	47.6	92	45.4	2	6	90	0.00	30.086 
13:55	47.9	47.9	47.9	92	45.7	1	5	90	0.00	30.086 
14:00	48.0	48.0	48.0	92	45.8	1	6	68	0.00	30.078 
14:05	48.5	48.5	48.5	92	46.3	1	3	45	0.00	30.078 
14:10	48.8	48.8	48.8	92	46.6	1	3	45	0.00	30.078 
14:15	48.9	48.9	48.9	91	46.4	1	4	45	0.00	30.072 
14:20	49.1	49.1	49.1	91	46.6	1	5	112	0.00	30.072 
14:25	49.4	49.4	49.4	91	46.9	1	3	112	0.00	30.072 
14:30	49.5	49.5	49.5	90	46.7	1	5	270	0.00	30.066 
14:35	49.8	49.8	49.8	90	47.0	1	3	270	0.00	30.066 
14:40	49.8	49.8	49.8	88	46.4	2	6	45	0.00	30.066 
14:45	49.9	49.9	49.9	87	46.2	2	9	248	0.00	30.067 
14:50	50.2	50.2	50.2	86	46.2	1	3	270	0.00	30.067 
14:55	50.4	50.4	50.4	86	46.4	2	6	248	0.00	30.067 
15:00	50.5	50.5	50.5	85	46.2	1	3	248	0.00	30.064 
15:05	50.8	50.8	50.8	84	46.1	1	4	270	0.00	30.064 
15:10	51.0	51.0	51.0	84	46.3	0	4	248	0.00	30.064 
15:15	51.1	51.1	51.1	84	46.4	1	4	248	0.00	30.063 
15:20	51.3	51.3	51.3	83	46.3	1	4	248	0.00	30.063 
15:25	51.4	51.4	51.4	83	46.4	0	4	248	0.00	30.063 
15:30	51.6	51.6	51.6	83	46.6	1	3	248	0.00	30.062 
15:35	51.7	51.7	51.7	84	47.0	1	2	248	0.00	30.062 
15:40	51.9	51.9	51.9	84	47.2	0	1	248	0.00	30.062 
15:45	52.0	52.0	52.0	83	47.0	0	2	248	0.00	30.055 
15:50	52.0	52.0	52.0	84	47.3	0	3	248	0.00	30.055 
15:55	52.2	52.2	52.2	83	47.2	1	3	112	0.00	30.055 
16:00	52.3	52.3	52.3	83	47.3	1	3	90	0.00	30.050 
16:05	52.5	52.5	52.5	83	47.5	1	5	90	0.00	30.050 
16:10	52.6	52.6	52.6	83	47.6	1	4	90	0.00	30.050 
16:15	52.8	52.8	52.8	83	47.8	1	5	112	0.00	30.040 
16:20	52.9	52.9	52.9	82	47.6	1	3	112	0.00	30.040 
16:25	53.1	53.1	53.1	82	47.8	1	5	112	0.00	30.040 
16:30	53.2	53.2	53.2	82	47.8	1	3	112	0.00	30.035 
16:35	53.5	53.5	53.5	82	48.1	1	4	112	0.00	30.035 
16:40	53.6	53.6	53.6	82	48.2	1	4	112	0.00	30.035 
16:45	53.8	53.8	53.8	81	48.1	1	4	90	0.00	30.030 
16:50	53.8	53.8	53.8	81	48.1	1	5	90	0.00	30.030 
16:55	53.9	53.9	53.9	81	48.2	2	4	90	0.00	30.030 
17:00	54.2	54.2	54.2	81	48.5	2	7	90	0.00	30.025 
17:05	54.4	54.4	54.4	81	48.7	1	3	112	0.00	30.025 
17:10	54.4	54.4	54.4	81	48.7	1	4	90	0.00	30.025 
17:15	54.4	54.4	54.4	81	48.7	1	5	112	0.00	30.024 
17:20	54.2	54.2	54.2	81	48.5	1	3	135	0.00	30.024 
17:25	54.2	54.2	54.2	81	48.5	2	4	112	0.00	30.024 
17:30	54.1	54.1	54.1	81	48.4	1	4	90	0.00	30.022 
17:35	54.1	54.1	54.1	81	48.4	1	5	90	0.00	30.022 
17:40	53.9	53.9	53.9	82	48.5	1	3	90	0.00	30.022 
17:45	53.8	53.8	53.8	82	48.4	0	3	90	0.00	30.031 
17:50	53.6	53.6	53.6	83	48.6	1	3	90	0.00	30.031 
17:55	53.6	53.6	53.6	83	48.6	1	2	90	0.00	30.031 
18:00	53.5	53.5	53.5	83	48.5	1	4	90	0.00	30.032 
18:05	53.5	53.5	53.5	83	48.5	1	4	112	0.00	30.032 
18:10	53.5	53.5	53.5	83	48.5	1	4	90	0.00	30.032 
18:15	53.5	53.5	53.5	84	48.8	1	4	90	0.00	30.040 
18:20	53.3	53.3	53.3	84	48.6	1	3	292	0.00	30.040 
18:25	53.3	53.3	53.3	84	48.6	0	3	292	0.00	30.040 
18:30	53.3	53.3	53.3	84	48.6	1	4	292	0.00	30.045 
18:35	53.3	53.3	53.3	84	48.6	1	5	292	0.00	30.045 
18:40	53.3	53.3	53.3	84	48.6	1	5	270	0.00	30.045 
18:45	53.3	53.3	53.3	84	48.6	2	6	248	0.00	30.041 
18:50	53.3	53.3	53.3	84	48.6	1	5	248	0.00	30.041 
18:55	53.2	53.2	53.2	84	48.5	1	5	248	0.00	30.041 
19:00	53.1	53.1	53.1	84	48.4	0	4	270	0.00	30.042 
19:05	52.9	52.9	52.9	85	48.5	1	4	270	0.00	30.042 
19:10	52.8	52.8	52.8	86	48.7	1	7	270	0.00	30.042 
19:15	52.5	52.5	52.5	87	48.7	1	3	90	0.00	30.035 
19:20	52.3	52.3	52.3	87	48.5	0	2	90	0.01	30.035 
19:25	52.2	52.2	52.2	88	48.8	0	2	22	0.00	30.035 
19:30	51.9	51.9	51.9	88	48.5	1	3	22	0.00	30.031 
19:35	51.9	51.9	51.9	88	48.5	0	2	112	0.00	30.031 
19:40	51.7	51.7	51.7	89	48.6	1	3	90	0.00	30.031 
19:45	51.7	51.7	51.7	89	48.6	1	3	90	0.00	30.028 
19:50	51.6	51.6	51.6	89	48.5	1	3	90	0.00	30.028 
19:55	51.6	51.6	51.6	89	48.5	1	4	90	0.00	30.028 
20:00	51.6	51.6	51.6	89	48.5	1	4	90	0.00	30.023 
20:05	51.6	51.6	51.6	89	48.5	1	5	90	0.00	30.023 
20:10	51.6	51.6	51.6	90	48.8	1	4	90	0.00	30.023 
20:15	51.4	51.4	51.4	90	48.6	0	2	90	0.00	30.020 
20:20	51.3	51.3	51.3	90	48.5	1	3	90	0.00	30.020 
20:25	51.3	51.3	51.3	90	48.5	1	4	90	0.00	30.020 
20:30	51.1	51.1	51.1	90	48.3	1	3	90	0.00	30.020 
20:35	51.1	51.1	51.1	90	48.3	1	3	90	0.00	30.020 
20:40	51.1	51.1	51.1	90	48.3	1	6	90	0.00	30.020 
20:45	51.1	51.1	51.1	90	48.3	1	5	90	0.00	30.016 
20:50	51.1	51.1	51.1	90	48.3	2	5	90	0.00	30.016 
20:55	51.1	51.1	51.1	90	48.3	1	6	90	0.00	30.016 
21:00	51.1	51.1	51.1	90	48.3	2	5	112	0.00	30.001 
21:05	51.1	51.1	51.1	90	48.3	1	4	112	0.00	30.001 
21:10	51.1	51.1	51.1	90	48.3	1	3	112	0.00	30.001 
21:15	51.1	51.1	51.1	90	48.3	2	6	90	0.00	29.993 
21:20	51.1	51.1	51.1	90	48.3	2	7	112	0.00	29.993 
21:25	51.1	51.1	51.1	90	48.3	1	3	45	0.00	29.993 
21:30	51.1	51.1	51.1	90	48.3	1	4	112	0.00	29.990 
21:35	51.1	51.1	51.1	90	48.3	1	5	90	0.00	29.990 
21:40	51.1	51.1	51.1	91	48.6	1	4	90	0.00	29.990 
21:45	51.1	51.1	51.1	91	48.6	2	5	90	0.00	29.983 
21:50	51.1	51.1	51.1	91	48.6	1	3	112	0.00	29.983 
21:55	51.1	51.1	51.1	91	48.6	1	4	112	0.00	29.983 
22:00	51.1	51.1	51.1	91	48.6	1	4	112	0.00	29.981 
22:05	51.1	51.1	51.1	91	48.6	1	3	90	0.00	29.981 
22:10	51.3	51.3	51.3	91	48.8	2	4	90	0.00	29.981 
22:15	51.3	51.3	51.3	91	48.8	1	4	112	0.00	29.976 
22:20	51.3	51.3	51.3	92	49.1	2	7	90	0.04	29.976 
22:25	51.1	51.1	51.1	92	48.9	2	5	135	0.06	29.976 
22:30	51.1	51.1	51.1	92	48.9	2	6	112	0.04	29.971 
22:35	51.0	51.0	51.0	93	49.0	2	5	112	0.01	29.971 
22:40	51.0	51.0	51.0	93	49.0	1	4	90	0.01	29.971 
22:45	51.0	51.0	51.0	93	49.0	1	3	158	0.00	29.963 
22:50	50.8	50.8	50.8	93	48.8	1	4	112	0.01	29.963 
22:55	50.8	50.8	50.8	94	49.1	1	3	90	0.00	29.963 
23:00	50.7	50.7	50.7	94	49.0	1	3	135	0.01	29.974 
23:05	50.7	50.7	50.7	94	49.0	0	2	0	0.01	29.974 
23:10	50.8	50.8	50.8	94	49.1	1	3	248	0.01	29.974 
23:15	50.8	50.8	50.8	94	49.1	1	3	0	0.01	29.974 
23:20	50.8	50.8	50.8	94	49.1	0	2	338	0.02	29.974 
23:25	50.8	50.8	50.8	94	49.1	1	5	270	0.04	29.974 
23:30	51.0	51.0	51.0	95	49.6	2	6	90	0.03	29.973 
23:35	51.0	51.0	51.0	95	49.6	2	6	90	0.03	29.973 
23:40	51.0	51.0	51.0	95	49.6	1	4	90	0.02	29.973 
23:45	51.0	51.0	51.0	95	49.6	1	7	45	0.03	29.961 
23:50	51.0	51.0	51.0	95	49.6	2	6	90	0.03	29.961 
23:55	51.0	51.0	51.0	95	49.6	2	6	112	0.02	29.961 

CoCoRaHS
IN-AL-39
A2 Web Hosting
Creative Commons License
GoDaddy
search engine by freefind advanced

loaded 2018-11-12 14:51:31 • last modified 2010-11-18 10:43:29
Privacy PolicyDisclaimer
• wx.awcolley.com is powered by PmWiki v.2002016 •
• all content (unless otherwise noted) © 2018 A W Colley